sensor_id;sensor_type;location;lat;lon;timestamp;pressure;altitude;pressure_sealevel;temperature;humidity
25084;BME280;13075;55.682;37.564;2023-04-09T00:00:21;100511.97;;;12.83;51.71
25084;BME280;13075;55.682;37.564;2023-04-09T00:02:46;100510.31;;;12.82;52.18
25084;BME280;13075;55.682;37.564;2023-04-09T00:05:12;100519.03;;;12.84;52.08
25084;BME280;13075;55.682;37.564;2023-04-09T00:07:38;100522.50;;;12.28;52.86
25084;BME280;13075;55.682;37.564;2023-04-09T00:10:04;100515.50;;;12.48;52.43
25084;BME280;13075;55.682;37.564;2023-04-09T00:12:29;100523.78;;;12.32;53.04
25084;BME280;13075;55.682;37.564;2023-04-09T00:14:55;100518.63;;;12.66;52.43
25084;BME280;13075;55.682;37.564;2023-04-09T00:17:21;100520.50;;;12.36;52.99
25084;BME280;13075;55.682;37.564;2023-04-09T00:19:46;100519.19;;;12.62;52.80
25084;BME280;13075;55.682;37.564;2023-04-09T00:22:12;100512.19;;;12.46;53.03
25084;BME280;13075;55.682;37.564;2023-04-09T00:24:37;100519.69;;;12.50;52.71
25084;BME280;13075;55.682;37.564;2023-04-09T00:27:03;100522.63;;;12.56;52.80
25084;BME280;13075;55.682;37.564;2023-04-09T00:29:28;100515.56;;;12.55;52.60
25084;BME280;13075;55.682;37.564;2023-04-09T00:31:54;100521.63;;;12.57;52.66
25084;BME280;13075;55.682;37.564;2023-04-09T00:34:19;100516.53;;;12.47;52.83
25084;BME280;13075;55.682;37.564;2023-04-09T00:36:45;100523.47;;;12.41;53.59
25084;BME280;13075;55.682;37.564;2023-04-09T00:39:10;100513.34;;;12.58;52.83
25084;BME280;13075;55.682;37.564;2023-04-09T00:41:36;100515.66;;;12.61;52.82
25084;BME280;13075;55.682;37.564;2023-04-09T00:44:01;100520.88;;;12.84;52.53
25084;BME280;13075;55.682;37.564;2023-04-09T00:46:27;100518.38;;;12.46;53.19
25084;BME280;13075;55.682;37.564;2023-04-09T00:48:53;100513.13;;;12.74;52.86
25084;BME280;13075;55.682;37.564;2023-04-09T00:51:18;100518.19;;;12.84;52.64
25084;BME280;13075;55.682;37.564;2023-04-09T00:53:44;100518.06;;;12.92;52.31
25084;BME280;13075;55.682;37.564;2023-04-09T00:56:11;100514.72;;;12.69;52.76
25084;BME280;13075;55.682;37.564;2023-04-09T00:58:39;100519.16;;;12.40;53.61
25084;BME280;13075;55.682;37.564;2023-04-09T01:01:04;100515.19;;;12.22;54.56
25084;BME280;13075;55.682;37.564;2023-04-09T01:03:30;100515.63;;;12.40;54.25
25084;BME280;13075;55.682;37.564;2023-04-09T01:06:05;100516.25;;;12.57;53.87
25084;BME280;13075;55.682;37.564;2023-04-09T01:08:35;100505.75;;;12.26;54.10
25084;BME280;13075;55.682;37.564;2023-04-09T01:13:48;100511.34;;;12.81;53.45
25084;BME280;13075;55.682;37.564;2023-04-09T01:16:14;100509.84;;;12.58;53.52
25084;BME280;13075;55.682;37.564;2023-04-09T01:18:42;100512.72;;;12.56;53.78
25084;BME280;13075;55.682;37.564;2023-04-09T01:21:10;100519.00;;;12.63;53.84
25084;BME280;13075;55.682;37.564;2023-04-09T01:27:07;100524.13;;;12.29;54.56
25084;BME280;13075;55.682;37.564;2023-04-09T01:29:02;100520.16;;;12.75;53.78
25084;BME280;13075;55.682;37.564;2023-04-09T01:31:31;100525.09;;;12.57;53.91
25084;BME280;13075;55.682;37.564;2023-04-09T01:33:57;100514.25;;;12.65;53.69
25084;BME280;13075;55.682;37.564;2023-04-09T01:36:24;100513.16;;;12.60;54.32
25084;BME280;13075;55.682;37.564;2023-04-09T01:38:51;100518.25;;;12.69;53.93
25084;BME280;13075;55.682;37.564;2023-04-09T01:41:18;100526.09;;;12.71;54.07
25084;BME280;13075;55.682;37.564;2023-04-09T01:43:45;100524.94;;;12.44;54.52
25084;BME280;13075;55.682;37.564;2023-04-09T01:46:12;100517.56;;;12.46;54.36
25084;BME280;13075;55.682;37.564;2023-04-09T01:48:38;100521.78;;;12.05;54.50
25084;BME280;13075;55.682;37.564;2023-04-09T01:51:04;100521.88;;;12.47;54.94
25084;BME280;13075;55.682;37.564;2023-04-09T01:53:30;100526.94;;;12.71;54.18
25084;BME280;13075;55.682;37.564;2023-04-09T01:55:57;100517.34;;;12.47;54.73
25084;BME280;13075;55.682;37.564;2023-04-09T01:58:23;100526.47;;;12.68;54.45
25084;BME280;13075;55.682;37.564;2023-04-09T02:00:49;100519.44;;;12.67;54.44
25084;BME280;13075;55.682;37.564;2023-04-09T02:08:46;100524.81;;;12.67;54.55
25084;BME280;13075;55.682;37.564;2023-04-09T02:11:13;100527.03;;;12.27;55.79
25084;BME280;13075;55.682;37.564;2023-04-09T02:13:39;100527.41;;;12.10;56.70
25084;BME280;13075;55.682;37.564;2023-04-09T02:16:05;100527.94;;;12.49;55.55
25084;BME280;13075;55.682;37.564;2023-04-09T02:18:31;100524.41;;;12.34;56.23
25084;BME280;13075;55.682;37.564;2023-04-09T02:20:57;100524.56;;;12.47;55.90
25084;BME280;13075;55.682;37.564;2023-04-09T02:23:23;100525.97;;;12.43;56.01
25084;BME280;13075;55.682;37.564;2023-04-09T02:25:49;100527.09;;;12.48;55.62
25084;BME280;13075;55.682;37.564;2023-04-09T02:28:15;100521.50;;;12.50;55.89
25084;BME280;13075;55.682;37.564;2023-04-09T02:30:41;100527.63;;;12.44;55.71
25084;BME280;13075;55.682;37.564;2023-04-09T02:33:06;100523.47;;;12.41;56.29
25084;BME280;13075;55.682;37.564;2023-04-09T02:35:32;100516.94;;;12.00;57.37
25084;BME280;13075;55.682;37.564;2023-04-09T02:37:57;100521.75;;;12.19;57.00
25084;BME280;13075;55.682;37.564;2023-04-09T02:40:22;100524.53;;;12.26;56.95
25084;BME280;13075;55.682;37.564;2023-04-09T02:42:49;100525.69;;;12.52;56.30
25084;BME280;13075;55.682;37.564;2023-04-09T02:45:14;100520.78;;;12.41;56.25
25084;BME280;13075;55.682;37.564;2023-04-09T02:47:40;100524.13;;;12.43;56.62
25084;BME280;13075;55.682;37.564;2023-04-09T02:50:06;100508.41;;;12.40;56.78
25084;BME280;13075;55.682;37.564;2023-04-09T02:52:33;100515.56;;;12.33;56.60
25084;BME280;13075;55.682;37.564;2023-04-09T02:54:59;100524.41;;;12.48;56.58
25084;BME280;13075;55.682;37.564;2023-04-09T02:57:24;100519.97;;;12.41;56.16
25084;BME280;13075;55.682;37.564;2023-04-09T02:59:50;100525.63;;;12.31;57.61
25084;BME280;13075;55.682;37.564;2023-04-09T03:02:15;100512.88;;;12.33;56.91
25084;BME280;13075;55.682;37.564;2023-04-09T03:04:41;100517.97;;;12.28;57.48
25084;BME280;13075;55.682;37.564;2023-04-09T03:07:06;100532.09;;;12.52;56.71
25084;BME280;13075;55.682;37.564;2023-04-09T03:09:32;100521.56;;;12.71;56.43
25084;BME280;13075;55.682;37.564;2023-04-09T03:11:57;100528.94;;;12.84;55.60
25084;BME280;13075;55.682;37.564;2023-04-09T03:14:23;100525.78;;;12.59;56.68
25084;BME280;13075;55.682;37.564;2023-04-09T03:16:48;100524.03;;;12.73;56.10
25084;BME280;13075;55.682;37.564;2023-04-09T03:19:14;100526.25;;;12.84;55.79
25084;BME280;13075;55.682;37.564;2023-04-09T03:21:40;100521.41;;;12.58;56.17
25084;BME280;13075;55.682;37.564;2023-04-09T03:24:05;100530.97;;;12.82;55.84
25084;BME280;13075;55.682;37.564;2023-04-09T03:26:31;100529.81;;;12.91;55.67
25084;BME280;13075;55.682;37.564;2023-04-09T03:29:02;100532.38;;;12.78;55.47
25084;BME280;13075;55.682;37.564;2023-04-09T03:31:28;100527.25;;;12.62;56.71
25084;BME280;13075;55.682;37.564;2023-04-09T03:33:53;100528.94;;;12.48;56.76
25084;BME280;13075;55.682;37.564;2023-04-09T03:36:19;100528.88;;;12.77;56.15
25084;BME280;13075;55.682;37.564;2023-04-09T03:38:57;100535.56;;;12.67;56.39
25084;BME280;13075;55.682;37.564;2023-04-09T03:41:29;100525.28;;;12.91;55.70
25084;BME280;13075;55.682;37.564;2023-04-09T03:43:57;100523.22;;;12.93;55.62
25084;BME280;13075;55.682;37.564;2023-04-09T03:46:26;100529.75;;;12.84;55.87
25084;BME280;13075;55.682;37.564;2023-04-09T03:48:53;100528.09;;;12.83;55.84
25084;BME280;13075;55.682;37.564;2023-04-09T03:51:19;100526.72;;;12.73;56.29
25084;BME280;13075;55.682;37.564;2023-04-09T03:53:51;100530.09;;;12.60;56.95
25084;BME280;13075;55.682;37.564;2023-04-09T03:56:17;100528.53;;;12.66;57.05
25084;BME280;13075;55.682;37.564;2023-04-09T03:58:42;100531.00;;;12.67;56.94
25084;BME280;13075;55.682;37.564;2023-04-09T04:01:10;100530.28;;;12.94;56.39
25084;BME280;13075;55.682;37.564;2023-04-09T04:03:42;100527.38;;;12.96;56.05
25084;BME280;13075;55.682;37.564;2023-04-09T04:06:20;100527.63;;;13.16;55.04
25084;BME280;13075;55.682;37.564;2023-04-09T04:09:04;100525.94;;;13.36;54.77
25084;BME280;13075;55.682;37.564;2023-04-09T04:11:40;100523.88;;;13.38;54.65
25084;BME280;13075;55.682;37.564;2023-04-09T04:14:06;100525.22;;;13.48;54.12
25084;BME280;13075;55.682;37.564;2023-04-09T04:16:31;100521.75;;;13.82;53.69
25084;BME280;13075;55.682;37.564;2023-04-09T04:18:58;100520.25;;;14.07;53.19
25084;BME280;13075;55.682;37.564;2023-04-09T04:21:24;100520.31;;;14.20;52.29
25084;BME280;13075;55.682;37.564;2023-04-09T04:23:57;100519.19;;;14.36;51.93
25084;BME280;13075;55.682;37.564;2023-04-09T04:26:26;100524.22;;;14.59;51.62
25084;BME280;13075;55.682;37.564;2023-04-09T04:28:51;100520.78;;;14.84;51.39
25084;BME280;13075;55.682;37.564;2023-04-09T04:31:37;100516.88;;;15.00;50.21
25084;BME280;13075;55.682;37.564;2023-04-09T04:34:03;100521.69;;;14.10;52.09
25084;BME280;13075;55.682;37.564;2023-04-09T04:36:29;100512.25;;;14.68;50.92
25084;BME280;13075;55.682;37.564;2023-04-09T04:38:54;100513.75;;;14.83;50.61
25084;BME280;13075;55.682;37.564;2023-04-09T04:41:43;100512.75;;;15.11;49.89
25084;BME280;13075;55.682;37.564;2023-04-09T04:44:13;100520.56;;;14.79;50.62
25084;BME280;13075;55.682;37.564;2023-04-09T04:46:41;100527.66;;;14.93;50.70
25084;BME280;13075;55.682;37.564;2023-04-09T04:49:06;100512.78;;;15.17;49.99
25084;BME280;13075;55.682;37.564;2023-04-09T04:51:38;100511.13;;;15.62;49.20
25084;BME280;13075;55.682;37.564;2023-04-09T04:54:07;100499.75;;;17.13;46.04
25084;BME280;13075;55.682;37.564;2023-04-09T04:56:33;100505.41;;;17.36;45.02
25084;BME280;13075;55.682;37.564;2023-04-09T04:59:08;100499.09;;;16.86;45.42
25084;BME280;13075;55.682;37.564;2023-04-09T05:01:54;100503.06;;;16.83;45.50
25084;BME280;13075;55.682;37.564;2023-04-09T05:04:19;100499.16;;;17.85;44.53
25084;BME280;13075;55.682;37.564;2023-04-09T05:06:45;100515.34;;;17.67;44.37
25084;BME280;13075;55.682;37.564;2023-04-09T05:09:16;100511.56;;;17.43;44.31
25084;BME280;13075;55.682;37.564;2023-04-09T05:11:54;100505.97;;;17.69;44.18
25084;BME280;13075;55.682;37.564;2023-04-09T05:14:21;100504.28;;;17.68;43.48
25084;BME280;13075;55.682;37.564;2023-04-09T05:16:47;100503.84;;;17.71;43.50
25084;BME280;13075;55.682;37.564;2023-04-09T05:19:14;100503.75;;;18.39;42.94
25084;BME280;13075;55.682;37.564;2023-04-09T05:21:42;100507.13;;;19.53;40.32
25084;BME280;13075;55.682;37.564;2023-04-09T05:24:08;100506.13;;;20.40;39.54
25084;BME280;13075;55.682;37.564;2023-04-09T05:26:33;100504.78;;;22.76;36.49
25084;BME280;13075;55.682;37.564;2023-04-09T05:29:00;100512.66;;;22.72;35.15
25084;BME280;13075;55.682;37.564;2023-04-09T05:31:26;100507.38;;;22.44;35.90
25084;BME280;13075;55.682;37.564;2023-04-09T05:34:00;100502.06;;;21.94;36.33
25084;BME280;13075;55.682;37.564;2023-04-09T05:36:37;100508.94;;;21.30;36.69
25084;BME280;13075;55.682;37.564;2023-04-09T05:39:02;100509.38;;;20.26;38.57
25084;BME280;13075;55.682;37.564;2023-04-09T05:41:29;100515.06;;;18.84;39.34
25084;BME280;13075;55.682;37.564;2023-04-09T05:44:17;100522.00;;;18.80;40.18
25084;BME280;13075;55.682;37.564;2023-04-09T05:46:43;100515.25;;;19.42;39.92
25084;BME280;13075;55.682;37.564;2023-04-09T05:49:10;100521.28;;;19.67;39.56
25084;BME280;13075;55.682;37.564;2023-04-09T05:51:38;100515.53;;;20.89;38.12
25084;BME280;13075;55.682;37.564;2023-04-09T05:54:04;100515.63;;;21.89;36.70
25084;BME280;13075;55.682;37.564;2023-04-09T05:56:34;100523.97;;;20.36;37.72
25084;BME280;13075;55.682;37.564;2023-04-09T05:59:00;100526.16;;;19.76;38.22
25084;BME280;13075;55.682;37.564;2023-04-09T06:01:25;100523.03;;;18.97;39.93
25084;BME280;13075;55.682;37.564;2023-04-09T06:03:51;100526.81;;;19.07;40.19
25084;BME280;13075;55.682;37.564;2023-04-09T06:06:17;100530.13;;;19.51;39.56
25084;BME280;13075;55.682;37.564;2023-04-09T06:08:42;100528.50;;;18.79;41.03
25084;BME280;13075;55.682;37.564;2023-04-09T06:11:09;100529.66;;;18.53;41.21
25084;BME280;13075;55.682;37.564;2023-04-09T06:13:35;100530.19;;;19.33;39.88
25084;BME280;13075;55.682;37.564;2023-04-09T06:16:04;100527.38;;;19.39;39.74
25084;BME280;13075;55.682;37.564;2023-04-09T06:18:30;100532.19;;;18.96;40.48
25084;BME280;13075;55.682;37.564;2023-04-09T06:21:05;100528.19;;;18.68;40.67
25084;BME280;13075;55.682;37.564;2023-04-09T06:23:31;100529.94;;;18.45;41.14
25084;BME280;13075;55.682;37.564;2023-04-09T06:25:57;100530.84;;;18.39;41.14
25084;BME280;13075;55.682;37.564;2023-04-09T06:28:22;100531.94;;;17.95;41.79
25084;BME280;13075;55.682;37.564;2023-04-09T06:30:48;100531.72;;;18.33;41.51
25084;BME280;13075;55.682;37.564;2023-04-09T06:33:13;100540.03;;;18.56;40.96
25084;BME280;13075;55.682;37.564;2023-04-09T06:35:39;100531.00;;;18.92;40.92
25084;BME280;13075;55.682;37.564;2023-04-09T06:38:04;100533.84;;;18.31;41.19
25084;BME280;13075;55.682;37.564;2023-04-09T06:40:31;100530.13;;;19.09;40.71
25084;BME280;13075;55.682;37.564;2023-04-09T06:42:56;100529.13;;;21.84;37.71
25084;BME280;13075;55.682;37.564;2023-04-09T06:45:28;100526.97;;;22.84;35.85
25084;BME280;13075;55.682;37.564;2023-04-09T06:47:53;100515.78;;;24.70;32.78
25084;BME280;13075;55.682;37.564;2023-04-09T06:50:18;100512.34;;;26.80;30.77
25084;BME280;13075;55.682;37.564;2023-04-09T06:52:44;100509.09;;;29.99;27.17
25084;BME280;13075;55.682;37.564;2023-04-09T06:55:10;100515.13;;;31.77;25.03
25084;BME280;13075;55.682;37.564;2023-04-09T06:57:36;100508.22;;;33.35;23.02
25084;BME280;13075;55.682;37.564;2023-04-09T07:00:02;100502.03;;;33.47;22.28
25084;BME280;13075;55.682;37.564;2023-04-09T07:02:28;100516.63;;;30.40;24.40
25084;BME280;13075;55.682;37.564;2023-04-09T07:04:53;100519.06;;;28.32;26.24
25084;BME280;13075;55.682;37.564;2023-04-09T07:07:19;100521.16;;;27.59;27.30
25084;BME280;13075;55.682;37.564;2023-04-09T07:09:47;100524.53;;;27.80;26.83
25084;BME280;13075;55.682;37.564;2023-04-09T07:12:12;100520.84;;;26.83;27.53
25084;BME280;13075;55.682;37.564;2023-04-09T07:14:38;100523.44;;;26.54;27.64
25084;BME280;13075;55.682;37.564;2023-04-09T07:17:03;100527.19;;;25.69;28.03
25084;BME280;13075;55.682;37.564;2023-04-09T07:19:29;100525.44;;;24.83;28.88
25084;BME280;13075;55.682;37.564;2023-04-09T07:21:55;100531.28;;;25.21;29.69
25084;BME280;13075;55.682;37.564;2023-04-09T07:24:20;100539.75;;;25.15;29.17
25084;BME280;13075;55.682;37.564;2023-04-09T07:26:46;100539.03;;;23.74;30.83
25084;BME280;13075;55.682;37.564;2023-04-09T07:29:11;100518.09;;;26.83;28.15
25084;BME280;13075;55.682;37.564;2023-04-09T07:31:37;100539.00;;;25.70;28.36
25084;BME280;13075;55.682;37.564;2023-04-09T07:34:02;100525.50;;;26.19;28.41
25084;BME280;13075;55.682;37.564;2023-04-09T07:36:28;100535.38;;;25.24;28.98
25084;BME280;13075;55.682;37.564;2023-04-09T07:38:53;100533.38;;;24.22;30.32
25084;BME280;13075;55.682;37.564;2023-04-09T07:41:19;100544.13;;;23.60;31.04
25084;BME280;13075;55.682;37.564;2023-04-09T07:43:45;100538.72;;;23.38;31.49
25084;BME280;13075;55.682;37.564;2023-04-09T07:46:10;100530.19;;;22.38;32.23
25084;BME280;13075;55.682;37.564;2023-04-09T07:48:35;100542.50;;;22.19;32.75
25084;BME280;13075;55.682;37.564;2023-04-09T07:51:01;100534.16;;;23.81;31.18
25084;BME280;13075;55.682;37.564;2023-04-09T07:53:26;100534.22;;;23.54;31.34
25084;BME280;13075;55.682;37.564;2023-04-09T07:55:52;100540.13;;;23.41;30.87
25084;BME280;13075;55.682;37.564;2023-04-09T07:58:17;100533.03;;;24.13;30.49
25084;BME280;13075;55.682;37.564;2023-04-09T08:00:43;100529.09;;;25.38;28.99
25084;BME280;13075;55.682;37.564;2023-04-09T08:03:08;100532.13;;;25.42;29.57
25084;BME280;13075;55.682;37.564;2023-04-09T08:05:34;100532.56;;;27.43;27.87
25084;BME280;13075;55.682;37.564;2023-04-09T08:08:00;100514.28;;;29.23;25.28
25084;BME280;13075;55.682;37.564;2023-04-09T08:10:25;100527.50;;;27.55;26.10
25084;BME280;13075;55.682;37.564;2023-04-09T08:12:51;100529.13;;;25.54;27.90
25084;BME280;13075;55.682;37.564;2023-04-09T08:15:16;100519.63;;;27.77;26.59
25084;BME280;13075;55.682;37.564;2023-04-09T08:17:42;100518.59;;;29.10;25.85
25084;BME280;13075;55.682;37.564;2023-04-09T08:20:07;100523.19;;;27.77;26.39
25084;BME280;13075;55.682;37.564;2023-04-09T08:22:33;100515.22;;;26.49;27.92
25084;BME280;13075;55.682;37.564;2023-04-09T08:24:58;100519.34;;;24.70;28.15
25084;BME280;13075;55.682;37.564;2023-04-09T08:27:24;100516.03;;;24.58;28.81
25084;BME280;13075;55.682;37.564;2023-04-09T08:29:50;100528.91;;;23.69;29.31
25084;BME280;13075;55.682;37.564;2023-04-09T08:32:16;100525.13;;;23.80;29.32
25084;BME280;13075;55.682;37.564;2023-04-09T08:34:41;100530.56;;;21.70;30.83
25084;BME280;13075;55.682;37.564;2023-04-09T08:37:07;100515.63;;;22.49;31.08
25084;BME280;13075;55.682;37.564;2023-04-09T08:39:32;100525.66;;;22.05;30.79
25084;BME280;13075;55.682;37.564;2023-04-09T08:41:58;100516.72;;;22.10;31.33
25084;BME280;13075;55.682;37.564;2023-04-09T08:44:27;100522.19;;;23.23;30.25
25084;BME280;13075;55.682;37.564;2023-04-09T08:46:52;100521.47;;;22.58;30.70
25084;BME280;13075;55.682;37.564;2023-04-09T08:49:18;100517.34;;;22.77;30.21
25084;BME280;13075;55.682;37.564;2023-04-09T08:51:44;100512.69;;;23.58;29.64
25084;BME280;13075;55.682;37.564;2023-04-09T08:54:13;100518.88;;;23.85;29.36
25084;BME280;13075;55.682;37.564;2023-04-09T08:56:38;100507.38;;;24.82;29.03
25084;BME280;13075;55.682;37.564;2023-04-09T08:59:04;100519.34;;;24.08;28.73
25084;BME280;13075;55.682;37.564;2023-04-09T09:01:30;100505.47;;;24.87;28.17
25084;BME280;13075;55.682;37.564;2023-04-09T09:04:00;100501.16;;;25.67;27.32
25084;BME280;13075;55.682;37.564;2023-04-09T09:06:26;100506.34;;;25.63;27.70
25084;BME280;13075;55.682;37.564;2023-04-09T09:09:00;100499.19;;;24.97;28.45
25084;BME280;13075;55.682;37.564;2023-04-09T09:11:26;100503.91;;;24.44;29.12
25084;BME280;13075;55.682;37.564;2023-04-09T09:14:01;100511.28;;;23.92;29.02
25084;BME280;13075;55.682;37.564;2023-04-09T09:16:27;100512.03;;;23.45;29.93
25084;BME280;13075;55.682;37.564;2023-04-09T09:18:53;100506.16;;;24.05;29.57
25084;BME280;13075;55.682;37.564;2023-04-09T09:21:20;100503.59;;;22.45;30.79
25084;BME280;13075;55.682;37.564;2023-04-09T09:23:45;100507.00;;;22.35;31.57
25084;BME280;13075;55.682;37.564;2023-04-09T09:26:16;100501.78;;;21.57;32.41
25084;BME280;13075;55.682;37.564;2023-04-09T09:28:45;100498.75;;;21.09;32.72
25084;BME280;13075;55.682;37.564;2023-04-09T09:31:14;100489.59;;;21.82;32.18
25084;BME280;13075;55.682;37.564;2023-04-09T09:33:40;100489.97;;;22.07;32.00
25084;BME280;13075;55.682;37.564;2023-04-09T09:36:06;100491.06;;;22.49;31.98
25084;BME280;13075;55.682;37.564;2023-04-09T09:38:33;100488.75;;;23.75;31.26
25084;BME280;13075;55.682;37.564;2023-04-09T09:41:01;100479.88;;;24.46;29.50
25084;BME280;13075;55.682;37.564;2023-04-09T09:43:40;100484.63;;;24.09;30.37
25084;BME280;13075;55.682;37.564;2023-04-09T09:46:09;100481.34;;;24.12;29.89
25084;BME280;13075;55.682;37.564;2023-04-09T09:48:35;100483.47;;;23.63;30.01
25084;BME280;13075;55.682;37.564;2023-04-09T09:51:01;100488.97;;;22.56;31.00
25084;BME280;13075;55.682;37.564;2023-04-09T09:53:28;100492.34;;;21.15;32.54
25084;BME280;13075;55.682;37.564;2023-04-09T09:55:54;100491.97;;;20.38;33.45
25084;BME280;13075;55.682;37.564;2023-04-09T09:58:22;100489.91;;;20.45;33.43
25084;BME280;13075;55.682;37.564;2023-04-09T10:00:49;100485.50;;;20.05;34.46
25084;BME280;13075;55.682;37.564;2023-04-09T10:03:21;100489.91;;;20.45;33.74
25084;BME280;13075;55.682;37.564;2023-04-09T10:05:49;100482.25;;;22.64;31.79
25084;BME280;13075;55.682;37.564;2023-04-09T10:08:15;100475.75;;;22.21;31.27
25084;BME280;13075;55.682;37.564;2023-04-09T10:10:41;100482.44;;;21.42;32.14
25084;BME280;13075;55.682;37.564;2023-04-09T10:13:14;100472.13;;;21.78;32.17
25084;BME280;13075;55.682;37.564;2023-04-09T10:15:42;100475.84;;;22.53;31.36
25084;BME280;13075;55.682;37.564;2023-04-09T10:18:08;100475.94;;;21.43;32.16
25084;BME280;13075;55.682;37.564;2023-04-09T10:20:41;100476.41;;;21.73;32.31
25084;BME280;13075;55.682;37.564;2023-04-09T10:23:08;100474.75;;;20.78;33.33
25084;BME280;13075;55.682;37.564;2023-04-09T10:25:37;100473.63;;;21.19;33.05
25084;BME280;13075;55.682;37.564;2023-04-09T10:28:05;100471.09;;;20.56;33.88
25084;BME280;13075;55.682;37.564;2023-04-09T10:30:38;100480.72;;;20.75;34.13
25084;BME280;13075;55.682;37.564;2023-04-09T10:33:11;100479.06;;;20.34;34.81
25084;BME280;13075;55.682;37.564;2023-04-09T10:35:37;100469.63;;;20.13;34.12
25084;BME280;13075;55.682;37.564;2023-04-09T10:38:05;100473.44;;;20.52;33.55
25084;BME280;13075;55.682;37.564;2023-04-09T10:40:31;100477.59;;;19.92;34.69
25084;BME280;13075;55.682;37.564;2023-04-09T10:42:56;100481.00;;;20.90;33.71
25084;BME280;13075;55.682;37.564;2023-04-09T10:45:22;100467.88;;;20.30;34.55
25084;BME280;13075;55.682;37.564;2023-04-09T10:47:50;100470.22;;;20.38;34.27
25084;BME280;13075;55.682;37.564;2023-04-09T10:50:19;100460.63;;;19.38;35.00
25084;BME280;13075;55.682;37.564;2023-04-09T10:52:45;100463.47;;;20.29;34.39
25084;BME280;13075;55.682;37.564;2023-04-09T10:57:54;100467.78;;;20.98;33.76
25084;BME280;13075;55.682;37.564;2023-04-09T11:00:20;100460.91;;;21.24;33.05
25084;BME280;13075;55.682;37.564;2023-04-09T11:05:33;100470.97;;;21.07;33.41
25084;BME280;13075;55.682;37.564;2023-04-09T11:08:03;100467.13;;;20.46;33.86
25084;BME280;13075;55.682;37.564;2023-04-09T11:10:29;100463.31;;;20.47;33.97
25084;BME280;13075;55.682;37.564;2023-04-09T11:12:55;100461.84;;;20.17;34.46
25084;BME280;13075;55.682;37.564;2023-04-09T11:15:20;100451.50;;;19.90;35.18
25084;BME280;13075;55.682;37.564;2023-04-09T11:17:46;100458.16;;;20.34;34.66
25084;BME280;13075;55.682;37.564;2023-04-09T11:20:12;100455.78;;;20.38;34.29
25084;BME280;13075;55.682;37.564;2023-04-09T11:22:38;100465.88;;;20.26;34.13
25084;BME280;13075;55.682;37.564;2023-04-09T11:25:04;100459.16;;;19.94;34.57
25084;BME280;13075;55.682;37.564;2023-04-09T11:27:29;100452.81;;;20.39;34.32
25084;BME280;13075;55.682;37.564;2023-04-09T11:29:55;100454.59;;;20.34;33.99
25084;BME280;13075;55.682;37.564;2023-04-09T11:32:20;100456.91;;;20.25;34.28
25084;BME280;13075;55.682;37.564;2023-04-09T11:34:46;100452.22;;;20.49;33.94
25084;BME280;13075;55.682;37.564;2023-04-09T11:37:14;100456.91;;;20.82;33.27
25084;BME280;13075;55.682;37.564;2023-04-09T11:39:44;100446.94;;;20.87;33.09
25084;BME280;13075;55.682;37.564;2023-04-09T11:42:16;100449.66;;;20.87;33.10
25084;BME280;13075;55.682;37.564;2023-04-09T11:44:43;100446.44;;;20.62;33.40
25084;BME280;13075;55.682;37.564;2023-04-09T11:47:10;100449.25;;;20.95;33.09
25084;BME280;13075;55.682;37.564;2023-04-09T11:49:36;100441.63;;;20.36;33.75
25084;BME280;13075;55.682;37.564;2023-04-09T11:52:02;100432.66;;;20.24;33.84
25084;BME280;13075;55.682;37.564;2023-04-09T11:54:34;100438.94;;;20.24;34.23
25084;BME280;13075;55.682;37.564;2023-04-09T11:57:02;100441.31;;;19.98;34.42
25084;BME280;13075;55.682;37.564;2023-04-09T11:59:28;100445.72;;;19.75;34.78
25084;BME280;13075;55.682;37.564;2023-04-09T12:01:53;100439.91;;;19.25;35.11
25084;BME280;13075;55.682;37.564;2023-04-09T12:04:22;100436.19;;;19.38;35.05
25084;BME280;13075;55.682;37.564;2023-04-09T12:06:47;100442.84;;;19.12;35.34
25084;BME280;13075;55.682;37.564;2023-04-09T12:09:13;100436.03;;;19.56;35.18
25084;BME280;13075;55.682;37.564;2023-04-09T12:11:43;100428.59;;;19.75;35.08
25084;BME280;13075;55.682;37.564;2023-04-09T12:14:12;100436.16;;;19.26;35.29
25084;BME280;13075;55.682;37.564;2023-04-09T12:16:38;100433.69;;;19.60;35.28
25084;BME280;13075;55.682;37.564;2023-04-09T12:19:08;100426.84;;;19.69;35.15
25084;BME280;13075;55.682;37.564;2023-04-09T12:24:29;100418.78;;;19.97;35.01
25084;BME280;13075;55.682;37.564;2023-04-09T12:26:55;100424.31;;;19.90;35.21
25084;BME280;13075;55.682;37.564;2023-04-09T12:29:21;100424.38;;;19.79;35.10
25084;BME280;13075;55.682;37.564;2023-04-09T12:31:47;100418.28;;;20.23;34.06
25084;BME280;13075;55.682;37.564;2023-04-09T12:34:12;100410.09;;;20.12;34.42
25084;BME280;13075;55.682;37.564;2023-04-09T12:36:38;100424.41;;;20.47;34.09
25084;BME280;13075;55.682;37.564;2023-04-09T12:39:05;100429.94;;;20.24;34.33
25084;BME280;13075;55.682;37.564;2023-04-09T12:41:31;100420.53;;;20.03;33.90
25084;BME280;13075;55.682;37.564;2023-04-09T12:43:57;100426.88;;;20.09;34.06
25084;BME280;13075;55.682;37.564;2023-04-09T12:46:22;100433.13;;;20.32;33.60
25084;BME280;13075;55.682;37.564;2023-04-09T12:48:48;100425.16;;;20.42;33.37
25084;BME280;13075;55.682;37.564;2023-04-09T12:51:13;100421.38;;;20.43;33.67
25084;BME280;13075;55.682;37.564;2023-04-09T12:53:39;100418.78;;;20.65;33.41
25084;BME280;13075;55.682;37.564;2023-04-09T12:56:05;100414.53;;;20.86;33.05
25084;BME280;13075;55.682;37.564;2023-04-09T12:58:30;100415.19;;;20.76;33.16